createdAt,value
2022-08-05T00:00:26.759Z,41.42
2022-08-05T00:01:21.023Z,36.83
2022-08-05T00:02:07.905Z,41.60
2022-08-05T00:02:51.512Z,44.97
2022-08-05T00:03:29.016Z,62.17
2022-08-05T00:04:08.387Z,40.60
2022-08-05T00:04:43.222Z,39.70
2022-08-05T00:06:01.740Z,35.83
2022-08-05T00:06:29.063Z,49.35
2022-08-05T00:07:27.122Z,54.08
2022-08-05T00:08:02.920Z,44.10
2022-08-05T00:08:38.736Z,47.50
2022-08-05T00:09:15.900Z,48.20
2022-08-05T00:09:54.615Z,42.15
2022-08-05T00:10:29.480Z,41.92
2022-08-05T00:11:04.474Z,38.40
2022-08-05T00:11:59.824Z,40.30
2022-08-05T00:12:34.720Z,41.80
2022-08-05T00:13:39.206Z,43.80
2022-08-05T00:14:17.268Z,40.75
2022-08-05T00:14:52.040Z,35.45
2022-08-05T00:15:57.546Z,50.88
2022-08-05T00:16:35.953Z,43.50
2022-08-05T00:17:56.204Z,41.78
2022-08-05T00:18:30.844Z,38.28
2022-08-05T00:19:04.533Z,39.55
2022-08-05T00:19:44.065Z,48.75
2022-08-05T00:20:33.246Z,44.38
2022-08-05T00:21:08.421Z,53.13
2022-08-05T00:21:43.488Z,42.72
2022-08-05T00:22:19.848Z,33.75
2022-08-05T00:22:55.269Z,38.55
2022-08-05T00:23:45.797Z,46.25
2022-08-05T00:24:31.094Z,50.05
2022-08-05T00:25:08.413Z,45.17
2022-08-05T00:25:46.387Z,42.58
2022-08-05T00:26:20.982Z,40.20
2022-08-05T00:26:58.611Z,32.83
2022-08-05T00:27:36.118Z,35.78
2022-08-05T00:28:10.550Z,43.95
2022-08-05T00:28:49.290Z,38.58
2022-08-05T00:29:25.515Z,39.47
2022-08-05T00:30:03.115Z,39.05
2022-08-05T00:30:39.537Z,40.83
2022-08-05T00:31:15.794Z,44.05
2022-08-05T00:32:11.051Z,34.28
2022-08-05T00:32:47.197Z,36.47
2022-08-05T00:34:55.635Z,45.75
2022-08-05T00:34:56.987Z,40.53
2022-08-05T00:35:12.275Z,40.17
2022-08-05T00:36:16.647Z,37.92
2022-08-05T00:37:12.553Z,42.88
2022-08-05T00:37:52.393Z,40.22
2022-08-05T00:38:33.726Z,40.80
2022-08-05T00:39:13.659Z,36.63
2022-08-05T00:39:58.600Z,40.35
2022-08-05T00:40:35.379Z,40.60
2022-08-05T00:41:29.548Z,32.95
2022-08-05T00:42:32.619Z,40.13
2022-08-05T00:43:07.731Z,42.80
2022-08-05T00:43:47.070Z,47.10
2022-08-05T00:44:30.575Z,37.67
2022-08-05T00:45:08.389Z,43.20
2022-08-05T00:45:44.940Z,42.88
2022-08-05T00:46:42.797Z,36.88
2022-08-05T00:47:18.603Z,37.13
2022-08-05T00:47:56.263Z,35.65
2022-08-05T00:48:31.828Z,34.08
2022-08-05T00:49:08.045Z,35.58
2022-08-05T00:49:51.691Z,35.22
2022-08-05T00:50:25.836Z,42.97
2022-08-05T00:51:01.217Z,42.15
2022-08-05T00:51:51.832Z,39.03
2022-08-05T00:52:28.766Z,34.17
2022-08-05T00:53:09.821Z,36.72
2022-08-05T00:54:02.171Z,35.83
2022-08-05T00:54:38.669Z,36.75
2022-08-05T00:55:13.737Z,36.47
2022-08-05T00:55:48.496Z,36.30
2022-08-05T00:56:23.415Z,36.50
2022-08-05T00:56:57.774Z,32.85
2022-08-05T00:57:55.263Z,39.08
2022-08-05T00:58:28.241Z,40.10
2022-08-05T00:59:03.090Z,39.25
2022-08-05T00:59:44.597Z,42.97
2022-08-05T01:00:25.943Z,35.33
2022-08-05T01:01:08.824Z,52.30
2022-08-05T01:01:48.685Z,39.28
2022-08-05T01:02:24.537Z,40.05
2022-08-05T01:03:00.064Z,36.80
2022-08-05T01:03:35.955Z,35.90
2022-08-05T01:04:14.287Z,38.55
2022-08-05T01:04:50.681Z,33.65
2022-08-05T01:05:27.560Z,36.08
2022-08-05T01:06:03.856Z,42.22
2022-08-05T01:06:38.797Z,39.08
2022-08-05T01:07:13.944Z,36.85
2022-08-05T01:08:40.529Z,41.72
2022-08-05T01:08:47.377Z,35.42
2022-08-05T01:09:22.685Z,44.75
2022-08-05T01:09:58.188Z,36.55
2022-08-05T01:10:35.340Z,37.15
2022-08-05T01:11:13.770Z,37.53
2022-08-05T01:11:51.720Z,34.88
2022-08-05T01:12:29.688Z,33.50
2022-08-05T01:13:13.342Z,39.55
2022-08-05T01:14:01.469Z,33.13
2022-08-05T01:14:36.561Z,42.88
2022-08-05T01:15:35.489Z,51.33
2022-08-05T01:16:09.131Z,40.25
2022-08-05T01:16:49.243Z,36.75
2022-08-05T01:17:28.943Z,47.53
2022-08-05T01:18:07.091Z,39.05
2022-08-05T01:18:48.176Z,36.90
2022-08-05T01:20:01.137Z,47.25
2022-08-05T01:20:33.675Z,41.42
2022-08-05T01:21:22.729Z,43.22
2022-08-05T01:22:06.164Z,44.83
2022-08-05T01:22:57.653Z,41.38
2022-08-05T01:24:13.223Z,41.13
2022-08-05T01:25:02.639Z,44.65
2022-08-05T01:25:56.621Z,36.38
2022-08-05T01:26:38.766Z,45.70
2022-08-05T01:27:22.416Z,36.65
2022-08-05T01:28:19.049Z,39.47
2022-08-05T01:28:55.926Z,34.17
2022-08-05T01:29:35.060Z,45.85
2022-08-05T01:30:17.790Z,41.70
2022-08-05T01:30:56.022Z,43.88
2022-08-05T01:31:44.621Z,36.88
2022-08-05T01:32:22.057Z,33.63
2022-08-05T01:32:59.456Z,38.83
2022-08-05T01:33:36.317Z,48.38
2022-08-05T01:34:15.508Z,38.75
2022-08-05T01:34:54.633Z,38.20
2022-08-05T01:35:51.176Z,45.22
2022-08-05T01:36:30.508Z,37.47
2022-08-05T01:37:05.641Z,33.55
2022-08-05T01:37:44.278Z,44.53
2022-08-05T01:38:27.180Z,41.78
2022-08-05T01:39:03.989Z,40.65
2022-08-05T01:39:46.087Z,49.60
2022-08-05T01:40:28.926Z,48.53
2022-08-05T01:41:04.601Z,40.88
2022-08-05T01:41:44.399Z,45.17
2022-08-05T01:42:21.334Z,39.80
2022-08-05T01:42:56.022Z,40.10
2022-08-05T01:43:34.803Z,47.08
2022-08-05T01:44:11.311Z,45.45
2022-08-05T01:44:53.865Z,42.92
2022-08-05T01:45:34.783Z,39.10
2022-08-05T01:46:43.112Z,40.83
2022-08-05T01:47:13.914Z,43.30
2022-08-05T01:47:54.422Z,37.42
2022-08-05T01:48:31.859Z,43.05
2022-08-05T01:49:23.352Z,41.05
2022-08-05T01:50:02.878Z,48.35
2022-08-05T01:50:39.197Z,39.60
2022-08-05T01:51:14.402Z,34.38
2022-08-05T01:51:51.786Z,43.33
2022-08-05T01:52:27.036Z,43.97
2022-08-05T01:53:02.245Z,43.88
2022-08-05T01:53:57.433Z,37.25
2022-08-05T01:54:46.123Z,45.38
2022-08-05T01:55:23.127Z,39.80
2022-08-05T01:56:00.325Z,45.50
2022-08-05T01:58:09.488Z,40.53
2022-08-05T01:58:10.297Z,45.55
2022-08-05T01:58:40.928Z,41.83
2022-08-05T01:59:26.071Z,36.08
2022-08-05T02:00:02.069Z,35.50
2022-08-05T02:00:39.561Z,44.53
2022-08-05T02:01:17.134Z,39.97
2022-08-05T02:02:00.534Z,41.30
2022-08-05T02:02:37.658Z,42.38
2022-08-05T02:03:29.141Z,44.55
2022-08-05T02:04:08.842Z,42.90
2022-08-05T02:04:49.694Z,45.22
2022-08-05T02:05:28.563Z,38.80
2022-08-05T02:06:33.676Z,41.55
2022-08-05T02:07:03.513Z,38.47
2022-08-05T02:07:40.570Z,43.75
2022-08-05T02:08:14.582Z,39.17
2022-08-05T02:09:05.842Z,43.97
2022-08-05T02:09:40.764Z,39.60
2022-08-05T02:10:17.524Z,43.90
2022-08-05T02:10:55.905Z,40.42
2022-08-05T02:11:34.262Z,38.90
2022-08-05T02:12:11.277Z,36.13
2022-08-05T02:12:50.902Z,37.90
2022-08-05T02:13:48.701Z,41.63
2022-08-05T02:14:29.203Z,37.35
2022-08-05T02:15:12.163Z,40.95
2022-08-05T02:15:48.469Z,32.70
2022-08-05T02:16:25.964Z,39.70
2022-08-05T02:17:06.108Z,36.33
2022-08-05T02:18:30.646Z,40.85
2022-08-05T02:18:45.663Z,37.58
2022-08-05T02:19:25.989Z,38.38
2022-08-05T02:20:03.063Z,45.83
2022-08-05T02:20:43.198Z,39.80
2022-08-05T02:21:23.473Z,39.88
2022-08-05T02:22:00.484Z,41.63
2022-08-05T02:22:39.452Z,45.08
2022-08-05T02:23:16.895Z,34.58
2022-08-05T02:23:54.137Z,38.83
2022-08-05T02:24:31.601Z,34.33
2022-08-05T02:25:07.479Z,42.15
2022-08-05T02:25:49.260Z,40.13
2022-08-05T02:26:26.766Z,39.67
2022-08-05T02:27:10.018Z,44.85
2022-08-05T02:27:57.991Z,43.35
2022-08-05T02:28:38.401Z,48.40
2022-08-05T02:29:24.133Z,39.25
2022-08-05T02:30:04.028Z,42.70
2022-08-05T02:30:51.883Z,39.60
2022-08-05T02:31:34.808Z,44.30
2022-08-05T02:32:10.737Z,47.55
2022-08-05T02:32:48.909Z,34.70
2022-08-05T02:33:38.670Z,55.70
2022-08-05T02:34:13.553Z,39.55
2022-08-05T02:34:51.717Z,41.75
2022-08-05T02:35:33.190Z,44.55
2022-08-05T02:36:15.692Z,39.45
2022-08-05T02:36:52.865Z,37.00
2022-08-05T02:37:28.465Z,40.53
2022-08-05T02:38:09.348Z,42.20
2022-08-05T02:38:45.244Z,37.25
2022-08-05T02:39:32.845Z,44.65
2022-08-05T02:40:09.511Z,42.42
2022-08-05T02:40:44.252Z,45.67
2022-08-05T02:41:20.281Z,42.58
2022-08-05T02:42:01.271Z,39.78
2022-08-05T02:42:38.347Z,42.55
2022-08-05T02:43:12.771Z,33.45
2022-08-05T02:44:02.478Z,35.00
2022-08-05T02:44:41.236Z,41.53
2022-08-05T02:45:19.257Z,38.45
2022-08-05T02:45:59.157Z,35.33
2022-08-05T02:46:35.919Z,40.28
2022-08-05T02:48:06.811Z,40.03
2022-08-05T02:48:29.337Z,35.95
2022-08-05T02:49:05.851Z,41.10
2022-08-05T02:49:45.652Z,32.75
2022-08-05T02:50:19.571Z,37.50
2022-08-05T02:50:55.086Z,37.25
2022-08-05T02:52:03.251Z,47.58
2022-08-05T02:52:30.077Z,35.58
2022-08-05T02:53:04.820Z,44.90
2022-08-05T02:53:46.415Z,39.13
2022-08-05T02:54:34.531Z,42.55
2022-08-05T02:55:12.299Z,41.65
2022-08-05T02:55:54.093Z,46.55
2022-08-05T02:56:33.987Z,53.13
2022-08-05T02:57:10.311Z,40.30
2022-08-05T02:58:09.834Z,45.13
2022-08-05T02:59:30.234Z,43.53
2022-08-05T03:00:25.596Z,44.17
2022-08-05T03:01:03.759Z,43.97
2022-08-05T03:01:41.402Z,39.72
2022-08-05T03:02:18.931Z,39.55
2022-08-05T03:02:56.729Z,37.38
2022-08-05T03:03:34.376Z,39.85
2022-08-05T03:04:26.057Z,39.30
2022-08-05T03:05:02.064Z,40.30
2022-08-05T03:06:55.815Z,42.65
2022-08-05T03:06:56.160Z,35.70
2022-08-05T03:08:01.213Z,37.83
2022-08-05T03:08:29.669Z,42.03
2022-08-05T03:09:04.289Z,35.97
2022-08-05T03:09:51.439Z,37.00
2022-08-05T03:10:28.659Z,45.13
2022-08-05T03:11:57.217Z,39.05
2022-08-05T03:11:58.389Z,48.45
2022-08-05T03:12:32.588Z,44.53
2022-08-05T03:13:16.910Z,38.40
2022-08-05T03:14:03.383Z,40.65
2022-08-05T03:14:45.563Z,39.70
2022-08-05T03:15:21.484Z,46.58
2022-08-05T03:15:59.643Z,38.50
2022-08-05T03:16:35.812Z,39.83
2022-08-05T03:17:11.870Z,39.10
2022-08-05T03:17:46.568Z,38.63
2022-08-05T03:18:24.789Z,38.47
2022-08-05T03:19:12.831Z,37.83
2022-08-05T03:19:51.510Z,37.92
2022-08-05T03:20:27.493Z,49.88
2022-08-05T03:21:01.877Z,52.47
2022-08-05T03:21:41.587Z,41.53
2022-08-05T03:22:32.302Z,43.53
2022-08-05T03:23:07.821Z,34.63
2022-08-05T03:23:45.617Z,38.40
2022-08-05T03:24:29.640Z,42.78
2022-08-05T03:25:33.937Z,36.90
2022-08-05T03:26:04.339Z,37.63
2022-08-05T03:26:55.520Z,42.40
2022-08-05T03:27:58.051Z,38.15
2022-08-05T03:28:24.541Z,35.53
2022-08-05T03:28:59.441Z,37.13
2022-08-05T03:29:45.854Z,40.45
2022-08-05T03:30:30.261Z,41.63
2022-08-05T03:31:25.896Z,36.42
2022-08-05T03:32:08.697Z,38.50
2022-08-05T03:32:43.305Z,40.80
2022-08-05T03:33:18.808Z,43.53
2022-08-05T03:33:53.448Z,41.03
2022-08-05T03:34:28.944Z,38.78
2022-08-05T03:35:04.438Z,33.58
2022-08-05T03:35:41.624Z,35.92
2022-08-05T03:36:15.701Z,64.65
2022-08-05T03:36:51.285Z,62.15
2022-08-05T03:37:26.982Z,39.55
2022-08-05T03:38:01.025Z,42.65
2022-08-05T03:38:37.390Z,38.00
2022-08-05T03:39:19.844Z,36.05
2022-08-05T03:39:59.124Z,34.80
2022-08-05T03:40:35.998Z,34.22
2022-08-05T03:41:12.387Z,34.03
2022-08-05T03:41:46.979Z,34.08
2022-08-05T03:42:23.101Z,35.58
2022-08-05T03:43:58.323Z,33.85
2022-08-05T03:44:09.636Z,31.13
2022-08-05T03:44:46.712Z,27.48
2022-08-05T03:45:23.392Z,38.33
2022-08-05T03:45:59.178Z,31.25
2022-08-05T03:46:36.457Z,29.60
2022-08-05T03:47:10.594Z,29.20
2022-08-05T03:47:49.333Z,38.65
2022-08-05T03:48:23.581Z,32.22
2022-08-05T03:48:57.634Z,33.53
2022-08-05T03:49:51.980Z,29.92
2022-08-05T03:50:28.885Z,36.13
2022-08-05T03:52:37.149Z,34.20
2022-08-05T03:52:49.193Z,28.58
2022-08-05T03:55:00.072Z,34.40
2022-08-05T03:55:34.230Z,34.05
2022-08-05T03:55:50.220Z,33.85
2022-08-05T03:56:12.080Z,32.95
2022-08-05T03:56:50.612Z,29.63
2022-08-05T03:57:42.458Z,26.17
2022-08-05T03:58:20.022Z,31.40
2022-08-05T03:59:04.556Z,35.90
2022-08-05T03:59:46.788Z,29.33
2022-08-05T04:00:32.750Z,31.30
2022-08-05T04:01:11.186Z,30.23
2022-08-05T04:01:50.285Z,29.27
2022-08-05T04:02:38.289Z,30.60
2022-08-05T04:03:28.304Z,30.23
2022-08-05T04:04:09.737Z,29.08
2022-08-05T04:04:45.626Z,30.35
2022-08-05T04:05:21.106Z,25.50
2022-08-05T04:05:59.836Z,26.27
2022-08-05T04:06:35.514Z,28.85
2022-08-05T04:07:12.386Z,32.00
2022-08-05T04:07:58.000Z,26.15
2022-08-05T04:08:36.205Z,29.42
2022-08-05T04:09:13.681Z,32.58
2022-08-05T04:09:54.084Z,31.13
2022-08-05T04:10:37.140Z,28.08
2022-08-05T04:11:13.669Z,34.25
2022-08-05T04:11:52.772Z,26.05
2022-08-05T04:12:27.517Z,27.08
2022-08-05T04:13:04.583Z,26.52
2022-08-05T04:13:49.825Z,31.17
2022-08-05T04:14:29.514Z,30.50
2022-08-05T04:15:06.004Z,28.42
2022-08-05T04:16:02.752Z,30.52
2022-08-05T04:16:38.094Z,31.00
2022-08-05T04:17:15.715Z,27.27
2022-08-05T04:17:56.717Z,31.30
2022-08-05T04:18:34.490Z,27.70
2022-08-05T04:19:14.316Z,29.52
2022-08-05T04:19:54.453Z,40.85
2022-08-05T04:20:32.978Z,30.85
2022-08-05T04:21:11.099Z,25.88
2022-08-05T04:22:09.916Z,29.40
2022-08-05T04:22:40.653Z,26.65
2022-08-05T04:23:16.315Z,31.00
2022-08-05T04:24:05.273Z,29.42
2022-08-05T04:24:44.453Z,32.55
2022-08-05T04:25:38.707Z,26.40
2022-08-05T04:26:21.724Z,28.80
2022-08-05T04:26:58.271Z,26.95
2022-08-05T04:27:42.091Z,27.88
2022-08-05T04:28:30.637Z,35.22
2022-08-05T04:29:07.368Z,27.70
2022-08-05T04:29:42.501Z,32.00
2022-08-05T04:30:16.298Z,29.48
2022-08-05T04:30:50.765Z,31.05
2022-08-05T04:31:27.639Z,30.38
2022-08-05T04:32:14.766Z,26.92
2022-08-05T04:32:55.855Z,27.48
2022-08-05T04:33:54.468Z,29.30
2022-08-05T04:34:32.733Z,31.65
2022-08-05T04:35:17.544Z,31.83
2022-08-05T04:36:10.640Z,32.10
2022-08-05T04:36:50.484Z,31.30
2022-08-05T04:38:01.169Z,31.67
2022-08-05T04:38:19.288Z,26.50
2022-08-05T04:38:55.531Z,28.92
2022-08-05T04:39:32.183Z,30.08
2022-08-05T04:40:07.860Z,28.27
2022-08-05T04:40:44.547Z,26.02
2022-08-05T04:41:34.103Z,28.90
2022-08-05T04:42:10.937Z,32.25
2022-08-05T04:42:46.999Z,28.42
2022-08-05T04:43:22.429Z,25.55
2022-08-05T04:43:57.003Z,30.00
2022-08-05T04:44:33.295Z,30.25
2022-08-05T04:45:08.466Z,28.35
2022-08-05T04:45:55.029Z,26.20
2022-08-05T04:46:30.203Z,28.17
2022-08-05T04:47:09.107Z,27.20
2022-08-05T04:47:48.034Z,28.50
2022-08-05T04:48:27.273Z,26.83
2022-08-05T04:49:03.323Z,38.50
2022-08-05T04:50:01.381Z,30.17
2022-08-05T04:50:37.443Z,34.15
2022-08-05T04:51:30.632Z,27.65
2022-08-05T04:52:04.882Z,28.40
2022-08-05T04:52:42.191Z,28.40
2022-08-05T04:53:19.791Z,30.80
2022-08-05T04:53:54.376Z,31.17
2022-08-05T04:54:29.153Z,28.88
2022-08-05T04:55:13.803Z,30.83
2022-08-05T04:56:15.530Z,28.30
2022-08-05T04:56:44.472Z,28.10
2022-08-05T04:57:18.897Z,30.85
2022-08-05T04:57:54.291Z,29.13
2022-08-05T04:58:30.476Z,28.70
2022-08-05T04:59:13.969Z,29.88
2022-08-05T04:59:59.866Z,25.80
2022-08-05T05:00:33.938Z,30.33
2022-08-05T05:01:08.243Z,31.27
2022-08-05T05:02:35.473Z,28.25
2022-08-05T05:02:41.923Z,31.45
2022-08-05T05:03:20.541Z,30.45
2022-08-05T05:03:55.022Z,39.17
2022-08-05T05:04:32.066Z,29.80
2022-08-05T05:05:26.209Z,28.63
2022-08-05T05:06:36.632Z,25.50
2022-08-05T05:06:57.702Z,28.25
2022-08-05T05:07:35.334Z,29.05
2022-08-05T05:08:14.338Z,32.00
2022-08-05T05:09:01.236Z,31.05
2022-08-05T05:09:41.531Z,25.10
2022-08-05T05:10:16.520Z,32.72
2022-08-05T05:10:56.369Z,26.58
2022-08-05T05:11:41.532Z,28.73
2022-08-05T05:12:27.372Z,27.98
2022-08-05T05:13:04.362Z,27.85
2022-08-05T05:13:42.966Z,26.98
2022-08-05T05:14:19.071Z,33.20
2022-08-05T05:15:10.758Z,25.38
2022-08-05T05:15:56.405Z,29.55
2022-08-05T05:16:33.886Z,27.70
2022-08-05T05:17:09.499Z,29.52
2022-08-05T05:17:56.764Z,24.95
2022-08-05T05:18:34.291Z,31.80
2022-08-05T05:19:18.996Z,34.05
2022-08-05T05:19:56.441Z,26.15
2022-08-05T05:20:31.905Z,29.05
2022-08-05T05:21:07.957Z,26.10
2022-08-05T05:21:43.489Z,29.08
2022-08-05T05:22:24.169Z,30.08
2022-08-05T05:23:06.801Z,26.38
2022-08-05T05:24:03.828Z,30.77
2022-08-05T05:24:56.105Z,33.80
2022-08-05T05:25:41.147Z,27.20
2022-08-05T05:26:15.800Z,28.35
2022-08-05T05:26:51.903Z,28.48
2022-08-05T05:27:41.791Z,27.90
2022-08-05T05:28:20.835Z,29.17
2022-08-05T05:28:55.924Z,27.35
2022-08-05T05:30:03.551Z,29.58
2022-08-05T05:30:29.702Z,26.50
2022-08-05T05:32:15.714Z,31.80
2022-08-05T05:32:52.914Z,28.52
2022-08-05T05:33:28.740Z,29.73
2022-08-05T05:34:27.058Z,27.17
2022-08-05T05:35:03.192Z,30.55
2022-08-05T05:35:39.762Z,29.70
2022-08-05T05:36:17.653Z,30.77
2022-08-05T05:36:54.036Z,29.08
2022-08-05T05:37:29.264Z,28.75
2022-08-05T05:38:27.155Z,33.00
2022-08-05T05:39:03.876Z,27.60
2022-08-05T05:39:39.143Z,29.50
2022-08-05T05:40:19.736Z,36.22
2022-08-05T05:40:55.066Z,41.30
2022-08-05T05:41:40.802Z,42.85
2022-08-05T05:42:17.772Z,32.00
2022-08-05T05:42:55.317Z,26.00
2022-08-05T05:43:57.215Z,28.67
2022-08-05T05:44:36.593Z,30.40
2022-08-05T05:45:14.165Z,25.55
2022-08-05T05:45:49.397Z,26.02
2022-08-05T05:46:24.700Z,29.25
2022-08-05T05:47:04.612Z,31.80
2022-08-05T05:48:06.781Z,33.22
2022-08-05T05:48:44.816Z,29.25
2022-08-05T05:49:22.624Z,25.70
2022-08-05T05:50:01.752Z,38.65
2022-08-05T05:50:44.534Z,28.63
2022-08-05T05:51:24.025Z,27.23
2022-08-05T05:51:58.525Z,28.65
2022-08-05T05:52:37.979Z,25.42
2022-08-05T05:53:21.244Z,24.65
2022-08-05T05:53:59.920Z,24.55
2022-08-05T05:54:50.427Z,29.45
2022-08-05T05:56:03.084Z,23.02
2022-08-05T05:56:38.408Z,25.17
2022-08-05T05:57:15.027Z,29.80
2022-08-05T05:58:32.056Z,32.08
2022-08-05T05:59:07.978Z,23.27
2022-08-05T05:59:43.527Z,28.23
2022-08-05T06:00:19.466Z,26.55
2022-08-05T06:00:55.007Z,23.77
2022-08-05T06:01:37.065Z,28.60
2022-08-05T06:02:13.396Z,27.98
2022-08-05T06:02:50.394Z,24.15
2022-08-05T06:03:40.182Z,27.48
2022-08-05T06:04:20.005Z,27.15
2022-08-05T06:04:58.487Z,32.83
2022-08-05T06:05:36.541Z,26.98
2022-08-05T06:06:12.029Z,30.35
2022-08-05T06:06:48.749Z,26.98
2022-08-05T06:07:24.151Z,25.50
2022-08-05T06:08:31.527Z,29.20
2022-08-05T06:09:08.266Z,27.70
2022-08-05T06:10:00.124Z,27.17
2022-08-05T06:10:37.590Z,24.80
2022-08-05T06:11:28.874Z,44.10
2022-08-05T06:12:03.798Z,81.90
2022-08-05T06:12:42.279Z,116.07
2022-08-05T06:13:16.504Z,31.40
2022-08-05T06:13:53.953Z,38.78
2022-08-05T06:14:31.369Z,35.58
2022-08-05T06:15:08.132Z,82.20
2022-08-05T06:16:29.865Z,169.07
2022-08-05T06:16:38.589Z,25.65
2022-08-05T06:17:22.407Z,23.70
2022-08-05T06:17:59.266Z,24.27
2022-08-05T06:18:36.557Z,28.65
2022-08-05T06:19:13.172Z,25.10
2022-08-05T06:20:21.382Z,32.75
2022-08-05T06:20:55.828Z,28.88
2022-08-05T06:21:36.734Z,28.33
2022-08-05T06:22:12.484Z,31.52
2022-08-05T06:22:49.202Z,29.38
2022-08-05T06:23:25.387Z,26.05
2022-08-05T06:24:11.502Z,29.08
2022-08-05T06:24:48.822Z,27.45
2022-08-05T06:26:12.201Z,25.25
2022-08-05T06:26:21.593Z,25.88
2022-08-05T06:27:00.921Z,24.85
2022-08-05T06:28:12.713Z,24.38
2022-08-05T06:28:30.849Z,30.65
2022-08-05T06:29:23.485Z,25.75
2022-08-05T06:30:04.349Z,29.63
2022-08-05T06:30:51.653Z,24.63
2022-08-05T06:31:30.406Z,26.45
2022-08-05T06:32:24.792Z,28.63
2022-08-05T06:33:01.107Z,24.00
2022-08-05T06:34:06.231Z,30.52
2022-08-05T06:34:29.943Z,30.15
2022-08-05T06:35:05.963Z,27.77
2022-08-05T06:36:07.318Z,24.75
2022-08-05T06:36:56.925Z,25.60
2022-08-05T06:37:56.370Z,29.63
2022-08-05T06:38:36.543Z,225.68
2022-08-05T06:39:10.415Z,463.13
2022-08-05T06:39:45.166Z,129.13
2022-08-05T06:40:21.508Z,56.35
2022-08-05T06:41:02.829Z,23.38
2022-08-05T06:41:41.290Z,21.50
2022-08-05T06:42:17.622Z,23.95
2022-08-05T06:42:55.021Z,22.75
2022-08-05T06:43:57.714Z,26.23
2022-08-05T06:44:25.134Z,26.02
2022-08-05T06:45:05.501Z,28.17
2022-08-05T06:46:03.635Z,25.02
2022-08-05T06:46:39.090Z,33.20
2022-08-05T06:48:11.359Z,25.73
2022-08-05T06:48:36.112Z,25.80
2022-08-05T06:49:06.331Z,24.42
2022-08-05T06:50:00.591Z,25.25
2022-08-05T06:50:37.857Z,24.52
2022-08-05T06:51:23.952Z,26.52
2022-08-05T06:52:04.858Z,24.95
2022-08-05T06:52:40.296Z,18.52
2022-08-05T06:53:24.393Z,21.17
2022-08-05T06:54:05.537Z,26.13
2022-08-05T06:54:42.804Z,29.58
2022-08-05T06:55:18.325Z,19.95
2022-08-05T06:55:53.024Z,31.05
2022-08-05T06:56:28.560Z,16.95
2022-08-05T06:57:56.795Z,17.80
2022-08-05T06:58:19.708Z,19.27
2022-08-05T06:58:53.543Z,16.60
2022-08-05T06:59:28.648Z,23.20
2022-08-05T07:00:14.998Z,17.38
2022-08-05T07:00:56.764Z,17.52
2022-08-05T07:01:32.313Z,21.58
2022-08-05T07:02:06.709Z,19.25
2022-08-05T07:02:43.834Z,17.58
2022-08-05T07:03:19.571Z,19.50
2022-08-05T07:04:02.270Z,21.35
2022-08-05T07:04:38.855Z,18.05
2022-08-05T07:05:15.318Z,21.15
2022-08-05T07:05:53.519Z,20.65
2022-08-05T07:06:34.585Z,30.27
2022-08-05T07:07:09.928Z,17.08
2022-08-05T07:07:46.096Z,26.52
2022-08-05T07:08:25.105Z,15.10
2022-08-05T07:09:00.073Z,16.38
2022-08-05T07:09:43.276Z,18.40
2022-08-05T07:10:17.468Z,17.70
2022-08-05T07:10:53.929Z,16.83
2022-08-05T07:11:30.037Z,20.98
2022-08-05T07:12:07.544Z,17.33
2022-08-05T07:12:57.453Z,18.13
2022-08-05T07:13:58.549Z,20.02
2022-08-05T07:14:51.516Z,18.38
2022-08-05T07:16:00.740Z,21.90
2022-08-05T07:17:59.875Z,15.75
2022-08-05T07:18:08.337Z,13.35
2022-08-05T07:18:47.940Z,15.70
2022-08-05T07:20:05.736Z,17.65
2022-08-05T07:20:38.939Z,13.27
2022-08-05T07:21:15.220Z,14.48
2022-08-05T07:22:01.611Z,12.95
2022-08-05T07:22:38.593Z,14.80
2022-08-05T07:23:26.100Z,15.05
2022-08-05T07:24:02.510Z,14.02
2022-08-05T07:24:43.697Z,9.32
2022-08-05T07:25:55.983Z,8.90
2022-08-05T07:26:24.875Z,12.73
2022-08-05T07:27:02.934Z,10.23
2022-08-05T07:27:56.341Z,10.90
2022-08-05T07:28:33.271Z,11.73
2022-08-05T07:29:07.141Z,10.52
2022-08-05T07:30:27.132Z,15.15
2022-08-05T07:30:38.780Z,11.57
2022-08-05T07:31:16.174Z,13.18
2022-08-05T07:31:54.760Z,12.93
2022-08-05T07:32:30.548Z,8.88
2022-08-05T07:33:09.530Z,10.85
2022-08-05T07:33:43.908Z,15.73
2022-08-05T07:34:21.253Z,9.30
2022-08-05T07:34:59.165Z,9.40
2022-08-05T07:36:02.372Z,13.90
2022-08-05T07:36:30.706Z,11.10
2022-08-05T07:37:06.658Z,11.30
2022-08-05T07:37:44.924Z,13.38
2022-08-05T07:38:32.037Z,13.40
2022-08-05T07:40:04.696Z,13.20
2022-08-05T07:40:26.888Z,15.48
2022-08-05T07:41:16.628Z,12.15
2022-08-05T07:42:13.302Z,13.20
2022-08-05T07:42:50.124Z,9.60
2022-08-05T07:43:24.633Z,15.63
2022-08-05T07:44:01.171Z,10.90
2022-08-05T07:44:34.807Z,11.82
2022-08-05T07:45:11.433Z,14.75
2022-08-05T07:45:57.286Z,10.75
2022-08-05T07:46:33.902Z,8.98
2022-08-05T07:47:10.142Z,12.32
2022-08-05T07:47:48.266Z,8.52
2022-08-05T07:49:01.421Z,11.73
2022-08-05T07:49:30.509Z,9.98
2022-08-05T07:50:06.701Z,13.32
2022-08-05T07:50:42.101Z,7.95
2022-08-05T07:51:23.578Z,10.07
2022-08-05T07:52:14.686Z,9.60
2022-08-05T07:52:49.689Z,11.07
2022-08-05T07:53:23.925Z,13.93
2022-08-05T07:54:12.890Z,11.63
2022-08-05T07:54:47.640Z,11.27
2022-08-05T07:56:04.664Z,8.20
2022-08-05T07:56:59.865Z,7.20
2022-08-05T07:57:23.659Z,11.43
2022-08-05T07:58:11.133Z,11.80
2022-08-05T07:59:04.438Z,8.13
2022-08-05T07:59:43.879Z,7.45
2022-08-05T08:00:27.309Z,8.30
2022-08-05T08:01:06.183Z,8.93
2022-08-05T08:01:52.487Z,10.05
2022-08-05T08:03:13.838Z,9.73
2022-08-05T08:03:44.317Z,8.43
2022-08-05T08:04:22.973Z,7.18
2022-08-05T08:05:12.668Z,8.70
2022-08-05T08:05:51.612Z,7.32
2022-08-05T08:06:28.331Z,12.40
2022-08-05T08:07:05.603Z,10.00
2022-08-05T08:08:00.168Z,11.85
2022-08-05T08:08:36.485Z,8.85
2022-08-05T08:09:11.692Z,11.55
2022-08-05T08:09:47.349Z,8.18
2022-08-05T08:10:23.879Z,7.57
2022-08-05T08:11:01.513Z,7.72
2022-08-05T08:11:47.176Z,11.57
2022-08-05T08:12:48.630Z,9.20
2022-08-05T08:13:28.951Z,8.23
2022-08-05T08:14:04.817Z,11.27
2022-08-05T08:14:40.978Z,10.50
2022-08-05T08:15:18.150Z,7.00
2022-08-05T08:16:35.563Z,7.65
2022-08-05T08:17:16.173Z,7.97
2022-08-05T08:17:53.055Z,11.13
2022-08-05T08:18:28.940Z,10.13
2022-08-05T08:19:02.882Z,11.38
2022-08-05T08:20:22.360Z,14.57
2022-08-05T08:20:45.140Z,8.65
2022-08-05T08:21:27.316Z,9.00
2022-08-05T08:22:03.315Z,10.85
2022-08-05T08:22:38.488Z,11.98
2022-08-05T08:24:01.541Z,12.80
2022-08-05T08:24:13.741Z,9.38
2022-08-05T08:24:51.547Z,8.68
2022-08-05T08:26:00.596Z,8.40
2022-08-05T08:26:29.718Z,7.93
2022-08-05T08:27:07.141Z,9.73
2022-08-05T08:27:47.940Z,10.60
2022-08-05T08:28:37.122Z,9.30
2022-08-05T08:29:45.326Z,12.00
2022-08-05T08:30:29.635Z,11.57
2022-08-05T08:31:09.712Z,9.02
2022-08-05T08:31:50.044Z,19.10
2022-08-05T08:32:28.022Z,9.10
2022-08-05T08:33:04.800Z,9.95
2022-08-05T08:33:42.685Z,13.32
2022-08-05T08:34:30.286Z,15.63
2022-08-05T08:35:13.399Z,15.07
2022-08-05T08:35:52.441Z,13.23
2022-08-05T08:36:29.827Z,9.57
2022-08-05T08:37:18.825Z,9.50
2022-08-05T08:37:56.336Z,8.43
2022-08-05T08:38:35.781Z,10.95
2022-08-05T08:39:15.430Z,14.52
2022-08-05T08:39:50.918Z,9.45
2022-08-05T08:40:26.293Z,9.27
2022-08-05T08:41:01.620Z,9.10
2022-08-05T08:41:51.965Z,9.77
2022-08-05T08:42:34.150Z,8.43
2022-08-05T08:45:01.571Z,8.77
2022-08-05T08:45:19.143Z,12.50
2022-08-05T08:45:19.237Z,14.07
2022-08-05T08:45:59.767Z,11.32
2022-08-05T08:46:34.105Z,11.35
2022-08-05T08:47:47.423Z,8.82
2022-08-05T08:48:23.139Z,8.35
2022-08-05T08:50:06.160Z,9.45
2022-08-05T08:50:22.290Z,8.35
2022-08-05T08:51:07.763Z,9.57
2022-08-05T08:52:03.171Z,10.50
2022-08-05T08:52:41.424Z,12.45
2022-08-05T08:53:22.360Z,11.80
2022-08-05T08:53:58.282Z,12.27
2022-08-05T08:54:36.455Z,9.10
2022-08-05T08:55:13.287Z,9.45
2022-08-05T08:56:03.556Z,9.23
2022-08-05T08:56:47.393Z,15.88
2022-08-05T08:57:24.985Z,11.45
2022-08-05T08:58:26.029Z,14.52
2022-08-05T08:59:14.887Z,9.20
2022-08-05T08:59:56.107Z,8.05
2022-08-05T09:00:31.903Z,10.18
2022-08-05T09:01:07.729Z,12.48
2022-08-05T09:01:46.817Z,12.18
2022-08-05T09:02:31.790Z,10.48
2022-08-05T09:03:10.522Z,11.73
2022-08-05T09:03:45.801Z,10.93
2022-08-05T09:04:20.657Z,7.90
2022-08-05T09:05:16.525Z,10.77